Time;durP1;ratioP1;P1;durP2;ratioP2;P2;SDS_P1;SDS_P2;PMS_P1;PMS_P2;Temp;Humidity;BMP_temperature;BMP_pressure;BME280_temperature;BME280_humidity;BME280_pressure;Samples;Min_cycle;Max_cycle;Signal;HPM_P1;HPM_P2
2022/06/18 00:00:29;;;;;;;0.55;0.20;;;22.30;86.60;;;;;;5049412;28;20029;-77
2022/06/18 00:02:57;;;;;;;0.43;0.17;;;22.30;86.80;;;;;;5039121;28;20159;-77
2022/06/18 00:05:24;;;;;;;0.65;0.10;;;22.50;86.90;;;;;;5033083;28;20036;-73
2022/06/18 00:07:54;;;;;;;0.40;0.10;;;22.70;85.60;;;;;;5035056;28;20041;-75
2022/06/18 00:10:25;;;;;;;0.17;0.10;;;22.60;84.40;;;;;;5039434;28;20021;-75
2022/06/18 00:15:41;;;;;;;0.30;0.17;;;22.60;85.20;;;;;;5046324;28;20512;-77
2022/06/18 00:18:13;;;;;;;0.85;0.35;;;22.70;85.20;;;;;;5062720;28;20044;-77
2022/06/18 00:20:42;;;;;;;0.22;0.10;;;22.80;85.30;;;;;;5042750;28;20505;-73
2022/06/18 00:23:17;;;;;;;0.38;0.10;;;23.00;84.20;;;;;;5044500;28;20072;-76
2022/06/18 00:25:51;;;;;;;0.10;0.10;;;23.00;84.30;;;;;;5032799;28;20064;-76
2022/06/18 00:28:24;;;;;;;0.30;0.10;;;23.30;84.30;;;;;;5031329;28;20108;-79
2022/06/18 00:30:53;;;;;;;0.08;0.08;;;23.60;84.00;;;;;;5048502;28;20470;-79
2022/06/18 00:33:21;;;;;;;1.33;0.10;;;23.80;82.30;;;;;;5046072;28;20048;-75
2022/06/18 00:35:50;;;;;;;0.22;0.10;;;24.10;82.70;;;;;;5035750;28;20544;-73
2022/06/18 00:38:32;;;;;;;0.40;0.10;;;24.30;81.40;;;;;;5032230;28;20037;-77
2022/06/18 00:41:00;;;;;;;1.10;0.32;;;24.40;80.40;;;;;;5031072;28;20117;-74
2022/06/18 00:43:39;;;;;;;0.52;0.20;;;24.50;81.00;;;;;;5032259;28;20048;-75
2022/06/18 00:46:27;;;;;;;0.15;0.05;;;24.30;80.60;;;;;;5027954;28;20117;-77
2022/06/18 00:49:25;;;;;;;0.10;0.10;;;24.70;80.80;;;;;;5002942;28;20057;-71
2022/06/18 00:52:16;;;;;;;0.20;0.10;;;25.00;79.80;;;;;;5051338;28;20643;-72
2022/06/18 00:55:00;;;;;;;0.22;0.20;;;25.40;81.10;;;;;;5049988;28;20057;-74
2022/06/18 00:57:41;;;;;;;0.55;0.03;;;25.70;79.10;;;;;;5032814;28;20021;-71
2022/06/18 01:00:37;;;;;;;0.88;0.10;;;25.60;78.00;;;;;;5028093;28;20032;-72
2022/06/18 01:03:05;;;;;;;1.40;0.40;;;25.70;77.40;;;;;;5051337;28;20547;-80
2022/06/18 01:05:39;;;;;;;0.20;0.10;;;26.00;77.70;;;;;;5043389;28;20045;-76
2022/06/18 01:08:17;;;;;;;0.25;0.20;;;26.10;77.70;;;;;;5045481;28;20328;-77
2022/06/18 01:11:08;;;;;;;0.20;0.15;;;26.30;77.80;;;;;;5032771;28;20025;-74
2022/06/18 01:13:38;;;;;;;0.90;0.30;;;26.30;77.30;;;;;;5034098;28;20061;-72
2022/06/18 01:16:10;;;;;;;0.13;0.10;;;26.60;77.90;;;;;;5038500;28;20025;-75
2022/06/18 01:18:40;;;;;;;0.30;0.13;;;26.40;76.40;;;;;;5043700;28;20032;-75
2022/06/18 01:21:46;;;;;;;0.50;0.10;;;26.70;76.50;;;;;;5045068;28;20024;-73
2022/06/18 01:24:24;;;;;;;2.83;0.20;;;26.80;75.40;;;;;;5038457;28;20048;-75
2022/06/18 01:26:53;;;;;;;0.75;0.20;;;26.80;76.00;;;;;;5021108;28;20030;-74
2022/06/18 01:29:21;;;;;;;0.10;0.10;;;26.80;76.60;;;;;;5037041;28;20033;-76
2022/06/18 01:31:49;;;;;;;1.55;0.30;;;27.00;75.10;;;;;;5029372;28;20060;-75
2022/06/18 01:34:17;;;;;;;0.32;0.20;;;27.20;75.70;;;;;;5050361;28;20040;-75
2022/06/18 01:36:44;;;;;;;1.40;0.73;;;27.30;75.80;;;;;;5047416;28;20054;-74
2022/06/18 01:39:20;;;;;;;1.70;0.22;;;27.40;76.00;;;;;;5040020;28;20387;-74
2022/06/18 01:41:52;;;;;;;0.85;0.30;;;27.60;75.00;;;;;;5045475;28;20029;-74
2022/06/18 01:44:46;;;;;;;0.32;0.20;;;27.50;75.80;;;;;;5060341;28;20040;-77
2022/06/18 01:47:42;;;;;;;0.57;0.20;;;27.60;75.20;;;;;;5035863;28;20416;-78
2022/06/18 01:50:40;;;;;;;1.23;0.20;;;27.70;75.40;;;;;;5048143;28;20052;-78
2022/06/18 01:53:13;;;;;;;0.30;0.20;;;27.80;75.30;;;;;;5052120;28;20486;-77
2022/06/18 01:55:48;;;;;;;1.30;0.43;;;27.80;74.80;;;;;;5042379;28;20483;-77
2022/06/18 01:58:47;;;;;;;0.10;0.10;;;27.70;76.20;;;;;;5040227;28;20029;-78
2022/06/18 02:01:26;;;;;;;1.33;0.20;;;27.80;74.70;;;;;;5024906;28;20045;-77
2022/06/18 02:03:57;;;;;;;1.00;0.52;;;27.60;75.30;;;;;;5046497;28;20021;-79
2022/06/18 02:06:25;;;;;;;0.10;0.10;;;27.70;73.50;;;;;;5040330;28;20352;-77
2022/06/18 02:08:53;;;;;;;1.23;0.20;;;27.40;74.50;;;;;;5040572;28;20480;-76
2022/06/18 02:11:21;;;;;;;2.22;0.20;;;27.40;75.00;;;;;;5046413;28;20501;-76
2022/06/18 02:13:58;;;;;;;0.80;0.20;;;27.50;75.00;;;;;;5038152;28;20159;-73
2022/06/18 02:16:29;;;;;;;0.32;0.20;;;27.50;74.70;;;;;;5033145;28;20034;-75
2022/06/18 02:18:59;;;;;;;0.40;0.20;;;27.80;74.50;;;;;;5049039;28;20115;-77
2022/06/18 02:21:26;;;;;;;2.25;0.30;;;27.70;74.30;;;;;;5055257;28;20103;-76
2022/06/18 02:23:56;;;;;;;1.77;0.10;;;27.90;74.10;;;;;;5071915;28;20025;-75
2022/06/18 02:26:29;;;;;;;0.57;0.10;;;27.80;75.00;;;;;;5053463;28;20032;-77
2022/06/18 02:28:58;;;;;;;1.27;0.20;;;28.20;74.30;;;;;;5055151;28;20029;-78
2022/06/18 02:31:34;;;;;;;0.85;0.32;;;28.10;73.60;;;;;;5044305;28;20079;-76
2022/06/18 02:34:11;;;;;;;0.98;0.30;;;28.10;75.30;;;;;;5052906;28;20625;-76
2022/06/18 02:36:43;;;;;;;0.40;0.10;;;28.00;75.20;;;;;;5042976;28;20025;-73
2022/06/18 02:39:40;;;;;;;1.05;0.20;;;28.10;74.50;;;;;;5040577;28;20037;-77
2022/06/18 02:42:17;;;;;;;0.60;0.20;;;28.00;74.20;;;;;;5042721;28;20025;-76
2022/06/18 02:44:46;;;;;;;0.68;0.20;;;27.50;74.20;;;;;;5031109;28;20085;-77
2022/06/18 02:47:16;;;;;;;3.42;0.50;;;27.30;74.80;;;;;;5043457;28;20120;-79
2022/06/18 02:49:52;;;;;;;3.40;0.20;;;26.30;76.10;;;;;;5067270;28;20021;-81
2022/06/18 02:52:22;;;;;;;4.35;0.30;;;26.50;76.40;;;;;;5057004;28;20094;-77
2022/06/18 02:54:49;;;;;;;0.95;0.20;;;26.70;76.20;;;;;;5045221;28;20120;-78
2022/06/18 02:57:26;;;;;;;2.35;0.30;;;26.60;75.90;;;;;;5050545;28;20021;-77
2022/06/18 02:59:54;;;;;;;1.70;0.22;;;26.00;77.20;;;;;;5050517;28;20120;-78
2022/06/18 03:02:21;;;;;;;1.02;0.20;;;26.10;78.20;;;;;;5047976;28;20426;-79
2022/06/18 03:04:49;;;;;;;1.77;0.30;;;25.80;77.20;;;;;;5044902;28;20040;-75
2022/06/18 03:07:16;;;;;;;2.10;0.30;;;25.40;79.10;;;;;;5031855;28;20033;-79
2022/06/18 03:12:29;;;;;;;0.65;0.20;;;25.40;77.80;;;;;;5047246;28;20116;-75
2022/06/18 03:14:56;;;;;;;1.98;0.30;;;25.10;78.20;;;;;;5047238;28;20108;-77
2022/06/18 03:17:24;;;;;;;0.98;0.50;;;25.00;78.80;;;;;;5036515;28;20082;-74
2022/06/18 03:19:58;;;;;;;0.30;0.20;;;24.90;78.60;;;;;;5047899;28;20532;-76
2022/06/18 03:22:25;;;;;;;0.35;0.35;;;24.90;79.10;;;;;;5054930;28;20028;-79
2022/06/18 03:24:53;;;;;;;0.70;0.20;;;24.60;79.50;;;;;;5062211;28;20491;-79
2022/06/18 03:27:20;;;;;;;1.52;0.20;;;24.70;79.30;;;;;;5041553;28;20041;-77
2022/06/18 03:29:49;;;;;;;1.13;0.20;;;24.60;79.90;;;;;;5049424;28;20029;-79
2022/06/18 03:32:17;;;;;;;0.90;0.30;;;24.20;80.10;;;;;;5047823;28;20420;-77
2022/06/18 03:34:44;;;;;;;0.20;0.15;;;23.60;80.80;;;;;;5049103;28;20037;-75
2022/06/18 03:37:12;;;;;;;0.80;0.40;;;23.30;81.60;;;;;;5050921;28;20021;-78
2022/06/18 03:39:39;;;;;;;1.27;0.20;;;22.90;82.60;;;;;;5045287;28;20074;-76
2022/06/18 03:42:07;;;;;;;0.68;0.20;;;22.50;83.00;;;;;;5054755;28;20029;-78
2022/06/18 03:44:34;;;;;;;0.80;0.40;;;22.10;84.40;;;;;;5036635;28;20446;-80
2022/06/18 03:47:02;;;;;;;0.70;0.25;;;21.70;85.00;;;;;;5039667;28;20123;-80
2022/06/18 03:49:32;;;;;;;1.30;0.20;;;21.40;85.70;;;;;;5034393;28;20064;-77
2022/06/18 03:52:05;;;;;;;1.70;0.40;;;21.10;87.20;;;;;;5049467;28;20394;-78
2022/06/18 03:54:33;;;;;;;4.03;0.20;;;20.90;87.20;;;;;;5050858;28;20051;-80
2022/06/18 03:57:00;;;;;;;0.52;0.20;;;20.80;88.30;;;;;;5049923;28;20325;-75
2022/06/18 03:59:28;;;;;;;0.82;0.25;;;20.60;88.00;;;;;;5031563;28;20472;-76
2022/06/18 04:01:55;;;;;;;0.63;0.20;;;20.50;88.50;;;;;;5039021;28;20052;-75
2022/06/18 04:04:22;;;;;;;0.80;0.22;;;20.50;89.10;;;;;;5045437;28;20453;-77
2022/06/18 04:06:50;;;;;;;0.40;0.10;;;20.60;88.80;;;;;;5051331;28;20108;-76
2022/06/18 04:09:18;;;;;;;0.80;0.20;;;20.50;88.10;;;;;;5031898;28;20029;-75
2022/06/18 04:11:45;;;;;;;1.42;0.22;;;20.40;89.20;;;;;;5039029;28;20124;-75
2022/06/18 04:14:12;;;;;;;0.85;0.25;;;20.20;89.30;;;;;;5048583;28;20041;-77
2022/06/18 04:16:40;;;;;;;0.98;0.20;;;20.20;90.00;;;;;;5044994;28;20021;-79
2022/06/18 04:19:09;;;;;;;2.08;0.40;;;20.20;89.90;;;;;;5041053;28;20024;-75
2022/06/18 04:21:36;;;;;;;1.17;0.20;;;20.20;90.20;;;;;;5039452;28;20043;-75
2022/06/18 04:24:04;;;;;;;0.85;0.20;;;20.20;90.20;;;;;;5037876;28;20033;-75
2022/06/18 04:26:31;;;;;;;1.13;0.73;;;20.20;90.20;;;;;;5045463;28;20462;-77
2022/06/18 04:28:59;;;;;;;1.75;0.30;;;20.30;90.00;;;;;;5032559;28;20115;-75
2022/06/18 04:31:26;;;;;;;1.40;0.98;;;20.40;90.10;;;;;;5030050;28;20029;-73
2022/06/18 04:33:54;;;;;;;2.70;0.20;;;20.50;90.30;;;;;;5030029;28;20037;-78
2022/06/18 04:36:36;;;;;;;1.27;0.20;;;20.50;90.00;;;;;;5030178;28;20073;-76
2022/06/18 04:39:06;;;;;;;2.08;0.60;;;20.50;90.10;;;;;;5030650;28;20104;-77
2022/06/18 04:41:33;;;;;;;2.83;0.80;;;20.40;90.20;;;;;;5047045;28;20195;-76
2022/06/18 04:44:02;;;;;;;1.60;0.68;;;20.20;90.00;;;;;;5050638;28;20079;-77
2022/06/18 04:46:29;;;;;;;3.35;0.88;;;20.00;90.20;;;;;;5034026;28;20496;-73
2022/06/18 04:48:57;;;;;;;0.88;0.50;;;19.90;90.50;;;;;;5034058;28;20045;-75
2022/06/18 04:51:24;;;;;;;1.05;0.30;;;19.80;90.80;;;;;;5048245;28;20068;-79
2022/06/18 04:53:52;;;;;;;1.17;0.17;;;19.80;90.70;;;;;;5046777;28;20037;-74
2022/06/18 04:56:19;;;;;;;2.65;0.30;;;19.80;90.60;;;;;;5040520;28;20309;-73
2022/06/18 04:58:47;;;;;;;1.08;0.30;;;20.00;90.60;;;;;;5049030;28;20036;-76
2022/06/18 05:01:28;;;;;;;0.65;0.17;;;20.00;90.60;;;;;;5048397;28;20127;-72
2022/06/18 05:03:56;;;;;;;0.73;0.20;;;20.10;90.30;;;;;;5050144;28;20025;-73
2022/06/18 05:06:24;;;;;;;0.20;0.10;;;20.20;90.30;;;;;;5040133;28;20480;-75
2022/06/18 05:08:51;;;;;;;1.05;0.50;;;20.20;90.50;;;;;;5048759;28;20085;-73
2022/06/18 05:11:18;;;;;;;3.10;1.17;;;20.20;90.60;;;;;;5041957;28;20059;-76
2022/06/18 05:13:46;;;;;;;3.05;0.70;;;20.00;91.10;;;;;;5030202;28;20063;-73
2022/06/18 05:16:15;;;;;;;2.78;1.08;;;19.70;91.40;;;;;;5030210;28;20061;-76
2022/06/18 05:18:45;;;;;;;1.45;0.70;;;19.50;91.80;;;;;;5044508;28;20097;-74
2022/06/18 05:21:13;;;;;;;2.63;1.20;;;19.30;92.10;;;;;;5034897;28;20025;-74
2022/06/18 05:23:41;;;;;;;2.15;1.33;;;19.10;92.30;;;;;;5049184;28;20029;-73
2022/06/18 05:26:14;;;;;;;2.65;0.80;;;19.00;92.50;;;;;;5037477;28;20106;-77
2022/06/18 05:28:42;;;;;;;1.58;0.40;;;18.90;92.50;;;;;;5040405;28;20504;-72
2022/06/18 05:31:09;;;;;;;2.13;0.60;;;18.80;92.70;;;;;;5030683;28;20022;-75
2022/06/18 05:33:36;;;;;;;4.90;0.82;;;18.80;92.80;;;;;;5029847;28;20038;-73
2022/06/18 05:36:05;;;;;;;5.20;1.33;;;18.70;93.00;;;;;;5029116;28;20055;-76
2022/06/18 05:38:33;;;;;;;4.88;1.08;;;18.60;93.20;;;;;;5030811;28;20030;-72
2022/06/18 05:41:00;;;;;;;5.22;1.35;;;18.50;93.40;;;;;;5043027;28;20029;-75
2022/06/18 05:43:27;;;;;;;2.50;1.17;;;18.30;93.70;;;;;;5036327;28;20025;-77
2022/06/18 05:45:55;;;;;;;2.90;0.98;;;18.20;93.90;;;;;;5037512;28;20353;-76
2022/06/18 05:48:22;;;;;;;4.63;1.70;;;18.10;94.00;;;;;;5034321;28;20021;-78
2022/06/18 05:50:49;;;;;;;4.82;0.95;;;17.90;94.20;;;;;;5032787;28;20391;-72
2022/06/18 05:53:17;;;;;;;1.33;0.95;;;17.90;94.40;;;;;;5033443;28;20026;-74
2022/06/18 05:55:44;;;;;;;1.35;0.63;;;17.70;94.60;;;;;;5042729;28;20033;-77
2022/06/18 05:58:11;;;;;;;2.92;1.70;;;17.60;94.90;;;;;;5033827;28;20032;-74
2022/06/18 06:00:39;;;;;;;3.33;0.90;;;17.50;95.00;;;;;;5043259;28;20117;-72
2022/06/18 06:03:06;;;;;;;6.43;0.80;;;17.50;95.00;;;;;;5040964;28;20025;-74
2022/06/18 06:05:33;;;;;;;3.03;0.80;;;17.40;94.90;;;;;;5037917;28;20392;-72
2022/06/18 06:08:01;;;;;;;4.82;0.70;;;17.40;94.90;;;;;;5045284;28;20075;-78
2022/06/18 06:13:19;;;;;;;2.05;0.68;;;17.30;95.00;;;;;;5053469;28;20120;-73
2022/06/18 06:15:47;;;;;;;3.85;1.23;;;17.30;95.20;;;;;;5047073;28;20119;-74
2022/06/18 06:18:16;;;;;;;1.38;0.90;;;17.10;95.30;;;;;;5033294;28;20356;-74
2022/06/18 06:20:47;;;;;;;5.57;0.50;;;17.10;95.40;;;;;;5040553;28;20095;-77
2022/06/18 06:23:15;;;;;;;2.55;0.82;;;17.00;95.40;;;;;;5052953;28;20382;-71
2022/06/18 06:25:44;;;;;;;1.48;0.52;;;17.00;95.60;;;;;;5043349;28;20108;-76
2022/06/18 06:28:23;;;;;;;1.35;0.60;;;16.90;95.60;;;;;;5044308;28;20029;-72
2022/06/18 06:30:51;;;;;;;0.90;0.50;;;16.90;95.70;;;;;;5036745;28;20115;-77
2022/06/18 06:33:19;;;;;;;5.65;0.77;;;16.80;95.80;;;;;;5033257;28;20033;-74
2022/06/18 06:35:47;;;;;;;3.70;0.70;;;16.80;95.90;;;;;;5038843;28;20096;-75
2022/06/18 06:38:15;;;;;;;4.03;0.85;;;16.70;96.00;;;;;;5033052;28;20033;-78
2022/06/18 06:40:44;;;;;;;7.95;1.98;;;16.60;96.20;;;;;;5034646;28;20120;-73
2022/06/18 06:43:16;;;;;;;6.38;2.00;;;16.50;96.40;;;;;;5047116;28;20036;-77
2022/06/18 06:45:43;;;;;;;6.75;2.97;;;16.40;96.60;;;;;;5048253;28;20021;-73
2022/06/18 06:48:11;;;;;;;3.67;1.58;;;16.40;96.80;;;;;;5047519;28;20088;-73
2022/06/18 06:50:40;;;;;;;7.90;2.70;;;16.30;96.90;;;;;;5037832;28;20447;-73
2022/06/18 06:53:08;;;;;;;3.28;1.55;;;16.20;97.10;;;;;;5033644;28;20061;-76
2022/06/18 06:58:23;;;;;;;9.25;1.33;;;16.00;97.40;;;;;;5053363;28;20422;-77
2022/06/18 07:00:56;;;;;;;2.72;1.33;;;15.90;97.50;;;;;;5050521;28;20031;-75
2022/06/18 07:03:27;;;;;;;5.20;2.72;;;15.80;97.70;;;;;;5053038;28;20055;-74
2022/06/18 07:05:56;;;;;;;2.70;1.88;;;15.80;97.90;;;;;;5043900;28;20028;-77
2022/06/18 07:08:24;;;;;;;3.20;1.02;;;15.60;97.90;;;;;;5044553;28;20052;-74
2022/06/18 07:10:51;;;;;;;7.40;1.83;;;15.60;98.20;;;;;;5038486;28;20099;-78
2022/06/18 07:13:20;;;;;;;6.10;1.50;;;15.50;98.40;;;;;;5031973;28;20068;-75
2022/06/18 07:15:49;;;;;;;4.05;2.05;;;15.40;98.60;;;;;;5036794;28;20033;-77
2022/06/18 07:18:22;;;;;;;4.70;2.63;;;15.40;98.60;;;;;;5049839;28;20572;-77
2022/06/18 07:20:49;;;;;;;4.72;2.47;;;15.30;98.80;;;;;;5047119;28;20041;-75
2022/06/18 07:23:17;;;;;;;5.28;3.40;;;15.20;98.90;;;;;;5043309;28;20025;-77
2022/06/18 07:25:44;;;;;;;5.28;2.30;;;15.10;99.10;;;;;;5039949;28;20483;-76
2022/06/18 07:28:12;;;;;;;7.78;3.13;;;15.00;99.30;;;;;;5033267;28;20057;-75
2022/06/18 07:30:39;;;;;;;9.60;3.42;;;15.00;99.60;;;;;;5036898;28;20133;-75
2022/06/18 07:33:07;;;;;;;6.35;2.90;;;14.90;99.60;;;;;;5031923;28;20053;-77
2022/06/18 07:35:36;;;;;;;3.20;1.83;;;14.90;99.70;;;;;;5035795;28;20029;-76
2022/06/18 07:38:04;;;;;;;6.15;1.92;;;14.80;99.80;;;;;;5060944;28;20020;-73
2022/06/18 07:40:47;;;;;;;6.32;2.65;;;14.70;99.90;;;;;;5063895;28;20048;-75
2022/06/18 07:43:20;;;;;;;4.25;2.17;;;14.70;99.90;;;;;;5031152;28;20030;-74
2022/06/18 07:45:47;;;;;;;5.68;2.78;;;14.60;99.90;;;;;;5037256;28;20018;-76
2022/06/18 07:48:15;;;;;;;4.22;1.83;;;14.50;99.90;;;;;;5034911;28;20029;-75
2022/06/18 07:50:47;;;;;;;4.20;2.30;;;14.40;99.90;;;;;;5032024;28;20041;-76
2022/06/18 07:53:20;;;;;;;8.35;2.85;;;14.30;99.90;;;;;;5036783;28;20047;-75
2022/06/18 07:55:48;;;;;;;4.82;2.30;;;14.30;99.90;;;;;;5045001;28;20448;-76
2022/06/18 07:58:16;;;;;;;4.43;1.77;;;14.20;99.90;;;;;;5045080;28;20029;-78
2022/06/18 08:00:44;;;;;;;4.82;2.00;;;14.10;99.90;;;;;;5033707;28;20021;-74
2022/06/18 08:03:15;;;;;;;4.63;1.90;;;14.10;99.90;;;;;;5033961;28;20025;-78
2022/06/18 08:05:43;;;;;;;3.55;1.77;;;14.00;99.90;;;;;;5040053;28;20032;-78
2022/06/18 08:08:14;;;;;;;2.88;2.13;;;14.00;99.90;;;;;;5031515;28;20075;-75
2022/06/18 08:10:46;;;;;;;3.55;1.70;;;13.90;99.90;;;;;;5042881;28;20402;-72
2022/06/18 08:13:13;;;;;;;4.50;2.25;;;13.90;99.90;;;;;;5049979;28;20095;-76
2022/06/18 08:15:40;;;;;;;7.65;2.35;;;13.80;99.90;;;;;;5053104;28;20158;-73
2022/06/18 08:18:08;;;;;;;4.38;1.38;;;13.80;99.90;;;;;;5031635;28;20067;-77
2022/06/18 08:20:36;;;;;;;3.05;1.00;;;13.70;99.90;;;;;;5030895;28;20029;-76
2022/06/18 08:23:06;;;;;;;3.30;1.48;;;13.70;99.90;;;;;;5046900;28;22041;-75
2022/06/18 08:25:35;;;;;;;6.78;1.83;;;13.70;99.90;;;;;;5060226;28;20386;-76
2022/06/18 08:28:05;;;;;;;6.20;2.05;;;13.70;99.90;;;;;;5030901;28;20059;-74
2022/06/18 08:30:33;;;;;;;5.40;1.75;;;13.70;99.90;;;;;;5036897;28;20044;-76
2022/06/18 08:33:00;;;;;;;3.50;1.85;;;13.60;99.90;;;;;;5058313;28;20047;-77
2022/06/18 08:35:28;;;;;;;3.47;1.77;;;13.60;99.90;;;;;;5044334;28;20044;-77
2022/06/18 08:37:55;;;;;;;6.15;2.33;;;13.60;99.90;;;;;;5042994;28;20033;-77
2022/06/18 08:40:35;;;;;;;7.97;3.17;;;13.50;99.90;;;;;;5046003;28;20034;-76
2022/06/18 08:43:21;;;;;;;5.97;3.20;;;13.50;99.90;;;;;;5043718;28;20025;-73
2022/06/18 08:45:54;;;;;;;;;;;13.50;99.90;;;;;;5052074;28;20039;-71
2022/06/18 08:48:50;;;;;;;5.82;2.65;;;13.50;99.90;;;;;;5049923;28;19912;-78
2022/06/18 08:51:58;;;;;;;7.85;3.53;;;13.50;99.90;;;;;;5009866;28;20130;-75
2022/06/18 08:54:38;;;;;;;7.63;3.15;;;13.40;99.90;;;;;;5030368;28;20490;-77
2022/06/18 08:57:11;;;;;;;5.25;3.42;;;13.40;99.90;;;;;;5033744;28;20025;-78
2022/06/18 08:59:58;;;;;;;8.40;4.40;;;13.40;99.90;;;;;;5042309;28;20047;-76
2022/06/18 09:02:44;;;;;;;7.63;4.00;;;13.30;99.90;;;;;;5048691;28;20045;-77
2022/06/18 09:05:45;;;;;;;6.72;3.90;;;13.20;99.90;;;;;;5058523;28;20048;-78
2022/06/18 09:08:38;;;;;;;9.25;4.13;;;13.10;99.90;;;;;;5034466;28;20086;-78
2022/06/18 09:11:35;;;;;;;7.75;4.30;;;13.00;99.90;;;;;;5032332;28;20037;-77
2022/06/18 09:14:41;;;;;;;6.28;4.28;;;12.80;99.90;;;;;;5059487;28;20644;-75
2022/06/18 09:17:11;;;;;;;8.63;3.80;;;12.80;99.90;;;;;;5018315;28;20344;-76
2022/06/18 09:19:43;;;;;;;7.63;3.85;;;12.80;99.90;;;;;;5031249;28;20043;-76
2022/06/18 09:22:19;;;;;;;6.50;3.28;;;12.80;99.90;;;;;;5034628;28;20029;-74
2022/06/18 09:24:49;;;;;;;5.47;2.80;;;12.80;99.90;;;;;;5042446;28;20035;-76
2022/06/18 09:27:27;;;;;;;5.10;3.53;;;12.80;99.90;;;;;;5035805;28;20017;-75
2022/06/18 09:29:57;;;;;;;6.43;2.75;;;12.90;99.90;;;;;;5064388;28;20051;-78
2022/06/18 09:32:43;;;;;;;8.07;3.40;;;13.00;99.90;;;;;;5041156;28;20048;-76
2022/06/18 09:35:32;;;;;;;8.70;2.90;;;13.00;99.90;;;;;;5053421;28;20035;-73
2022/06/18 09:38:06;;;;;;;6.05;3.58;;;13.10;99.90;;;;;;5047944;28;20504;-76
2022/06/18 09:40:40;;;;;;;7.32;3.17;;;13.10;99.90;;;;;;5062844;28;20041;-77
2022/06/18 09:43:29;;;;;;;4.43;3.50;;;13.20;99.90;;;;;;5046915;28;20036;-75
2022/06/18 09:46:01;;;;;;;6.50;3.03;;;13.10;99.90;;;;;;5034954;28;20136;-77
2022/06/18 09:48:29;;;;;;;7.13;3.30;;;13.10;99.90;;;;;;5048631;28;20169;-74
2022/06/18 09:51:03;;;;;;;3.75;1.60;;;13.10;99.90;;;;;;5045138;28;20711;-78
2022/06/18 09:53:41;;;;;;;7.55;2.53;;;13.20;99.90;;;;;;5034050;28;20363;-79
2022/06/18 09:56:27;;;;;;;3.30;2.65;;;13.20;99.90;;;;;;5046868;28;20033;-76
2022/06/18 09:58:59;;;;;;;8.00;3.08;;;13.30;99.90;;;;;;5028959;28;20080;-77
2022/06/18 10:01:38;;;;;;;5.32;2.92;;;13.30;99.90;;;;;;5037344;28;20045;-74
2022/06/18 10:06:57;;;;;;;14.38;8.18;;;13.40;99.90;;;;;;5029519;28;20107;-76
2022/06/18 10:09:33;;;;;;;8.35;5.30;;;13.40;99.90;;;;;;5035528;28;20139;-75
2022/06/18 10:12:15;;;;;;;7.13;2.63;;;13.40;99.90;;;;;;5039004;28;20420;-76
2022/06/18 10:14:44;;;;;;;3.90;2.53;;;13.30;99.90;;;;;;5048217;28;20110;-74
2022/06/18 10:17:20;;;;;;;3.63;2.00;;;13.30;99.90;;;;;;5045721;28;20052;-75
2022/06/18 10:20:11;;;;;;;4.00;2.00;;;13.20;99.90;;;;;;5059005;28;20041;-75
2022/06/18 10:23:03;;;;;;;2.78;1.75;;;13.10;99.90;;;;;;5055152;28;20107;-73
2022/06/18 10:25:56;;;;;;;4.05;1.75;;;13.10;99.90;;;;;;5067965;28;20033;-76
2022/06/18 10:28:35;;;;;;;2.40;1.30;;;13.00;99.90;;;;;;5056117;28;20048;-74
2022/06/18 10:31:12;;;;;;;6.15;2.05;;;12.90;99.90;;;;;;5066770;28;20107;-75
2022/06/18 10:34:09;;;;;;;3.30;1.90;;;12.80;99.90;;;;;;5060660;28;20104;-75
2022/06/18 10:36:48;;;;;;;3.35;2.17;;;12.60;99.90;;;;;;5047464;28;20458;-76
2022/06/18 10:39:22;;;;;;;6.38;1.75;;;12.50;99.90;;;;;;5066299;28;20048;-75
2022/06/18 10:41:57;;;;;;;4.68;1.92;;;12.40;99.90;;;;;;5063973;28;20028;-73
2022/06/18 10:44:54;;;;;;;2.45;1.58;;;12.30;99.90;;;;;;5063627;28;20043;-75
2022/06/18 10:47:22;;;;;;;2.58;1.33;;;12.30;99.90;;;;;;5057482;28;20031;-74
2022/06/18 10:50:01;;;;;;;2.53;1.55;;;12.20;99.90;;;;;;5063747;28;20077;-72
2022/06/18 10:52:29;;;;;;;3.80;1.73;;;12.20;99.90;;;;;;5051214;28;20142;-74
2022/06/18 10:55:25;;;;;;;2.97;1.60;;;12.10;99.90;;;;;;5050977;28;20048;-74
2022/06/18 10:57:52;;;;;;;4.68;2.10;;;12.10;99.90;;;;;;5036879;28;20436;-74
2022/06/18 11:00:25;;;;;;;5.70;2.60;;;12.00;99.90;;;;;;5071106;28;20068;-74
2022/06/18 11:02:59;;;;;;;3.95;2.28;;;11.90;99.90;;;;;;5056125;28;20026;-74
2022/06/18 11:05:35;;;;;;;1.65;1.38;;;11.90;99.90;;;;;;5068109;28;20036;-74
2022/06/18 11:08:17;;;;;;;6.85;2.42;;;11.90;99.90;;;;;;5054850;28;20036;-73
2022/06/18 11:10:54;;;;;;;4.25;2.40;;;11.80;99.90;;;;;;5055352;28;20077;-74
2022/06/18 11:13:35;;;;;;;4.85;2.45;;;11.80;99.90;;;;;;5051645;28;20048;-75
2022/06/18 11:16:22;;;;;;;7.10;3.45;;;11.80;99.90;;;;;;5051939;28;20029;-75
2022/06/18 11:18:55;;;;;;;5.05;2.08;;;11.80;99.90;;;;;;5067073;28;20051;-75
2022/06/18 11:21:28;;;;;;;4.25;2.05;;;11.80;99.90;;;;;;5052530;28;20067;-76
2022/06/18 11:24:07;;;;;;;3.15;2.50;;;11.80;99.90;;;;;;5060935;28;20538;-76
2022/06/18 11:26:34;;;;;;;5.07;2.40;;;11.90;99.90;;;;;;5052583;28;20491;-75
2022/06/18 11:29:10;;;;;;;4.93;1.90;;;12.00;99.90;;;;;;5059378;28;20032;-73
2022/06/18 11:31:45;;;;;;;5.82;2.70;;;12.10;99.90;;;;;;5066716;28;20394;-74
2022/06/18 11:34:44;;;;;;;4.28;1.88;;;12.10;99.90;;;;;;5058030;28;20049;-76
2022/06/18 11:37:23;;;;;;;5.65;1.77;;;12.20;99.90;;;;;;5059016;28;20478;-74
2022/06/18 11:39:57;;;;;;;2.60;1.75;;;12.30;99.90;;;;;;5052065;28;20025;-74
2022/06/18 11:42:55;;;;;;;1.52;0.85;;;12.30;99.90;;;;;;5049349;28;20082;-75
2022/06/18 11:45:38;;;;;;;2.75;1.60;;;12.40;99.90;;;;;;5032327;28;20128;-74
2022/06/18 11:48:40;;;;;;;3.20;1.58;;;12.40;99.90;;;;;;5057442;28;20061;-76
2022/06/18 11:51:41;;;;;;;2.20;1.33;;;12.40;99.90;;;;;;5070039;28;20132;-76
2022/06/18 11:54:31;;;;;;;2.40;1.58;;;12.40;99.90;;;;;;5039454;28;20029;-76
2022/06/18 11:57:22;;;;;;;3.25;1.13;;;12.40;99.90;;;;;;5035125;28;20025;-77
2022/06/18 12:00:06;;;;;;;4.13;1.40;;;12.50;99.90;;;;;;5046699;28;20029;-77
2022/06/18 12:02:46;;;;;;;3.50;1.15;;;12.50;99.90;;;;;;5045627;28;20587;-76
2022/06/18 12:05:20;;;;;;;4.65;1.10;;;12.50;99.90;;;;;;5042033;28;20112;-77
2022/06/18 12:07:49;;;;;;;1.45;1.10;;;12.50;99.90;;;;;;5042892;28;20029;-77
2022/06/18 12:10:19;;;;;;;3.75;1.98;;;12.50;99.90;;;;;;5039495;28;20033;-76
2022/06/18 12:12:51;;;;;;;2.75;1.83;;;12.60;99.90;;;;;;5038741;28;20021;-79
2022/06/18 12:15:47;;;;;;;1.73;1.10;;;12.60;99.90;;;;;;5032549;28;20064;-76
2022/06/18 12:18:39;;;;;;;2.25;1.17;;;12.60;99.90;;;;;;5043188;28;20056;-76
2022/06/18 12:21:49;;;;;;;3.33;1.40;;;12.50;99.90;;;;;;5038299;28;20386;-75
2022/06/18 12:24:31;;;;;;;5.80;1.52;;;12.50;99.90;;;;;;5042153;28;20139;-75
2022/06/18 12:27:03;;;;;;;2.88;1.67;;;12.50;99.90;;;;;;5032219;28;20030;-74
2022/06/18 12:29:37;;;;;;;4.70;1.70;;;12.50;99.90;;;;;;5030469;28;20483;-74
2022/06/18 12:32:12;;;;;;;5.80;2.33;;;12.40;99.90;;;;;;5051876;28;20040;-75
2022/06/18 12:35:15;;;;;;;3.50;1.80;;;12.40;99.90;;;;;;5041197;28;20037;-75
2022/06/18 12:37:51;;;;;;;4.63;1.65;;;12.30;99.90;;;;;;5031092;28;20026;-74
2022/06/18 12:40:27;;;;;;;3.55;1.98;;;12.20;99.90;;;;;;5029214;28;20029;-75
2022/06/18 12:43:11;;;;;;;5.25;1.60;;;12.10;99.90;;;;;;5033432;28;20069;-75
2022/06/18 12:46:04;;;;;;;3.83;1.33;;;12.10;99.90;;;;;;5029736;28;20021;-74
2022/06/18 12:48:45;;;;;;;2.80;1.73;;;12.10;99.90;;;;;;5040401;28;20422;-74
2022/06/18 12:51:12;;;;;;;6.07;1.92;;;12.10;99.90;;;;;;5042118;28;20444;-75
2022/06/18 12:54:05;;;;;;;5.10;2.30;;;12.10;99.90;;;;;;5030259;28;20056;-75
2022/06/18 12:56:36;;;;;;;2.28;1.52;;;12.10;99.90;;;;;;5052149;28;20033;-75
2022/06/18 12:59:21;;;;;;;5.75;1.85;;;12.10;99.90;;;;;;5050683;28;20025;-75
2022/06/18 13:02:07;;;;;;;2.90;1.92;;;12.20;99.90;;;;;;5022211;28;20040;-76
2022/06/18 13:04:58;;;;;;;3.45;1.20;;;12.20;99.90;;;;;;5044004;28;20332;-75
2022/06/18 13:07:50;;;;;;;3.13;1.42;;;12.20;99.90;;;;;;5034570;28;20029;-74
2022/06/18 13:10:31;;;;;;;4.28;1.50;;;12.20;99.90;;;;;;5036955;28;20029;-76
2022/06/18 13:13:01;;;;;;;3.03;1.35;;;12.20;99.90;;;;;;5048278;28;20029;-73
2022/06/18 13:15:40;;;;;;;1.67;1.42;;;12.20;99.90;;;;;;5040777;28;20034;-74
2022/06/18 13:18:28;;;;;;;2.33;0.80;;;12.20;99.90;;;;;;5032900;28;20395;-75
2022/06/18 13:20:59;;;;;;;2.70;1.08;;;12.20;99.90;;;;;;5047550;28;20437;-73
2022/06/18 13:29:43;;;;;;;1.52;0.75;;;12.20;99.90;;;;;;5035131;28;20435;-73
2022/06/18 13:32:17;;;;;;;2.67;0.95;;;12.20;99.90;;;;;;5019074;28;20040;-73
2022/06/18 13:35:02;;;;;;;2.22;0.73;;;12.20;99.90;;;;;;5028319;28;20037;-73
2022/06/18 13:37:42;;;;;;;2.88;1.00;;;12.10;99.90;;;;;;5026626;28;20352;-73
2022/06/18 13:40:15;;;;;;;3.10;1.00;;;12.10;99.90;;;;;;5028210;28;20028;-74
2022/06/18 13:43:02;;;;;;;2.10;1.00;;;12.10;99.90;;;;;;5042183;28;20474;-73
2022/06/18 13:45:29;;;;;;;2.05;0.85;;;12.00;99.90;;;;;;5032812;28;20123;-73